createdAt,value
2018-02-15T00:01:31.867Z,34.73
2018-02-15T00:03:57.553Z,27.25
2018-02-15T00:06:23.238Z,35.30
2018-02-15T00:08:49.221Z,34.93
2018-02-15T00:11:14.938Z,27.37
2018-02-15T00:13:40.618Z,28.00
2018-02-15T00:16:06.330Z,36.30
2018-02-15T00:18:32.020Z,32.57
2018-02-15T00:20:57.713Z,24.97
2018-02-15T00:23:23.422Z,36.17
2018-02-15T00:25:49.111Z,25.33
2018-02-15T00:28:14.793Z,28.37
2018-02-15T00:30:40.486Z,30.13
2018-02-15T00:33:06.158Z,30.00
2018-02-15T00:35:31.898Z,33.67
2018-02-15T00:37:57.570Z,26.43
2018-02-15T00:40:23.246Z,14.30
2018-02-15T00:42:48.943Z,34.73
2018-02-15T00:45:14.623Z,25.60
2018-02-15T00:47:40.303Z,26.50
2018-02-15T00:50:06.017Z,23.33
2018-02-15T00:52:31.705Z,20.33
2018-02-15T00:54:57.399Z,24.87
2018-02-15T00:57:23.095Z,26.00
2018-02-15T00:59:48.783Z,33.83
2018-02-15T01:02:14.477Z,23.17
2018-02-15T01:04:40.173Z,28.53
2018-02-15T01:07:05.853Z,29.17
2018-02-15T01:09:31.539Z,32.73
2018-02-15T01:11:57.252Z,34.00
2018-02-15T01:14:23.138Z,7.37
2018-02-15T01:16:48.815Z,23.73
2018-02-15T01:19:14.493Z,23.27
2018-02-15T01:21:40.282Z,34.80
2018-02-15T01:24:05.966Z,30.73
2018-02-15T01:26:31.675Z,33.83
2018-02-15T01:28:57.371Z,37.77
2018-02-15T01:31:23.056Z,31.53
2018-02-15T01:33:48.735Z,21.07
2018-02-15T01:36:14.429Z,26.20
2018-02-15T01:38:40.119Z,33.67
2018-02-15T01:41:05.810Z,30.47
2018-02-15T01:43:31.821Z,35.33
2018-02-15T01:45:57.494Z,33.55
2018-02-15T01:48:23.178Z,29.37
2018-02-15T01:50:48.876Z,31.23
2018-02-15T01:53:14.552Z,27.67
2018-02-15T01:55:40.234Z,22.63
2018-02-15T01:58:05.935Z,34.40
2018-02-15T02:00:31.619Z,31.90
2018-02-15T02:02:57.310Z,31.33
2018-02-15T02:05:23.025Z,39.67
2018-02-15T02:07:48.726Z,21.40
2018-02-15T02:10:14.410Z,36.33
2018-02-15T02:12:40.139Z,28.87
2018-02-15T02:15:05.843Z,34.63
2018-02-15T02:17:31.526Z,29.00
2018-02-15T02:19:57.265Z,33.90
2018-02-15T02:22:22.941Z,31.70
2018-02-15T02:24:48.633Z,34.83
2018-02-15T02:27:14.326Z,34.03
2018-02-15T02:29:40.124Z,33.63
2018-02-15T02:32:05.801Z,36.93
2018-02-15T02:34:31.590Z,34.47
2018-02-15T02:36:57.267Z,33.50
2018-02-15T02:39:22.954Z,36.13
2018-02-15T02:41:48.658Z,35.77
2018-02-15T02:44:14.337Z,33.80
2018-02-15T02:46:49.234Z,30.70
2018-02-15T02:49:14.911Z,40.15
2018-02-15T02:51:40.589Z,34.57
2018-02-15T02:54:06.281Z,31.67
2018-02-15T02:56:31.953Z,30.80
2018-02-15T02:58:57.634Z,34.80
2018-02-15T03:01:23.346Z,31.30
2018-02-15T03:03:49.012Z,35.13
2018-02-15T03:06:14.688Z,33.90
2018-02-15T03:08:40.385Z,32.57
2018-02-15T03:11:06.064Z,48.73
2018-02-15T03:13:31.728Z,32.23
2018-02-15T03:15:57.831Z,34.53
2018-02-15T03:18:23.510Z,32.28
2018-02-15T03:20:49.185Z,26.43
2018-02-15T03:23:14.881Z,38.37
2018-02-15T03:25:40.558Z,30.20
2018-02-15T03:28:06.221Z,35.53
2018-02-15T03:30:31.905Z,34.23
2018-02-15T03:32:57.590Z,31.70
2018-02-15T03:35:23.476Z,37.50
2018-02-15T03:37:49.164Z,31.40
2018-02-15T03:40:14.854Z,31.77
2018-02-15T03:42:40.557Z,30.40
2018-02-15T03:45:06.254Z,36.50
2018-02-15T03:47:31.925Z,28.67
2018-02-15T03:49:57.620Z,30.67
2018-02-15T03:52:23.280Z,29.43
2018-02-15T03:54:48.950Z,27.73
2018-02-15T03:57:14.647Z,32.87
2018-02-15T03:59:40.324Z,30.93
2018-02-15T04:02:05.997Z,27.67
2018-02-15T04:04:31.685Z,34.30
2018-02-15T04:06:57.378Z,30.93
2018-02-15T04:09:23.058Z,32.70
2018-02-15T04:11:49.406Z,39.70
2018-02-15T04:14:15.083Z,37.88
2018-02-15T04:16:40.757Z,31.03
2018-02-15T04:19:06.452Z,32.53
2018-02-15T04:21:32.127Z,31.60
2018-02-15T04:23:57.803Z,33.30
2018-02-15T04:26:23.507Z,32.87
2018-02-15T04:28:49.189Z,32.83
2018-02-15T04:31:14.860Z,34.80
2018-02-15T04:33:40.542Z,31.30
2018-02-15T04:36:06.218Z,28.80
2018-02-15T04:38:31.900Z,35.03
2018-02-15T04:40:57.787Z,35.87
2018-02-15T04:43:23.474Z,36.93
2018-02-15T04:45:49.161Z,35.37
2018-02-15T04:48:14.856Z,33.83
2018-02-15T04:50:40.563Z,41.27
2018-02-15T04:53:06.258Z,42.97
2018-02-15T04:55:31.944Z,26.60
2018-02-15T04:57:57.626Z,36.37
2018-02-15T05:00:23.575Z,32.97
2018-02-15T05:02:49.279Z,33.10
2018-02-15T05:05:14.957Z,38.50
2018-02-15T05:07:40.654Z,38.37
2018-02-15T05:10:06.318Z,36.63
2018-02-15T05:12:32.009Z,36.97
2018-02-15T05:14:57.699Z,35.30
2018-02-15T05:17:23.389Z,30.47
2018-02-15T05:19:49.086Z,35.80
2018-02-15T05:22:14.782Z,22.27
2018-02-15T05:24:40.475Z,35.20
2018-02-15T05:27:06.162Z,37.83
2018-02-15T05:29:31.852Z,36.37
2018-02-15T05:31:57.528Z,35.83
2018-02-15T05:34:23.198Z,34.07
2018-02-15T05:36:48.933Z,35.90
2018-02-15T05:39:14.611Z,36.33
2018-02-15T05:41:40.289Z,36.50
2018-02-15T05:44:05.995Z,38.20
2018-02-15T05:46:31.678Z,33.90
2018-02-15T05:48:57.356Z,30.87
2018-02-15T05:51:23.230Z,41.13
2018-02-15T05:53:48.917Z,40.60
2018-02-15T05:56:14.603Z,38.90
2018-02-15T05:58:40.316Z,43.93
2018-02-15T06:01:06.014Z,34.20
2018-02-15T06:03:31.694Z,31.13
2018-02-15T06:05:57.483Z,37.60
2018-02-15T06:08:23.169Z,41.13
2018-02-15T06:10:48.852Z,39.60
2018-02-15T06:13:14.540Z,37.00
2018-02-15T06:15:40.218Z,34.73
2018-02-15T06:18:05.905Z,44.23
2018-02-15T06:20:31.603Z,38.00
2018-02-15T06:22:57.285Z,34.07
2018-02-15T06:25:22.961Z,36.23
2018-02-15T06:27:48.661Z,32.23
2018-02-15T06:30:14.329Z,47.00
2018-02-15T06:32:40.019Z,46.03
2018-02-15T06:35:05.911Z,30.17
2018-02-15T06:37:31.586Z,39.63
2018-02-15T06:39:57.274Z,54.13
2018-02-15T06:42:22.982Z,40.67
2018-02-15T06:44:48.872Z,36.73
2018-02-15T06:47:14.545Z,39.70
2018-02-15T06:49:40.230Z,42.40
2018-02-15T06:52:05.905Z,34.90
2018-02-15T06:54:31.587Z,28.67
2018-02-15T06:56:57.280Z,39.73
2018-02-15T06:59:22.968Z,37.60
2018-02-15T07:01:48.646Z,37.20
2018-02-15T07:04:14.345Z,37.03
2018-02-15T07:06:40.031Z,32.07
2018-02-15T07:09:05.732Z,24.87
2018-02-15T07:11:31.438Z,40.90
2018-02-15T07:13:57.109Z,49.73
2018-02-15T07:16:22.797Z,44.03
2018-02-15T07:18:48.581Z,41.10
2018-02-15T07:21:14.263Z,37.83
2018-02-15T07:23:39.946Z,39.10
2018-02-15T07:26:05.841Z,42.07
2018-02-15T07:28:31.508Z,36.67
2018-02-15T07:30:57.173Z,37.47
2018-02-15T07:33:22.860Z,44.03
2018-02-15T07:35:48.541Z,47.00
2018-02-15T07:38:14.231Z,46.67
2018-02-15T07:40:39.916Z,43.97
2018-02-15T07:43:05.612Z,43.07
2018-02-15T07:45:31.310Z,43.80
2018-02-15T07:47:57.185Z,42.30
2018-02-15T07:50:22.896Z,45.17
2018-02-15T07:52:48.587Z,33.77
2018-02-15T07:55:14.388Z,47.90
2018-02-15T07:57:40.074Z,45.90
2018-02-15T08:00:05.870Z,29.47
2018-02-15T08:02:31.557Z,37.70
2018-02-15T08:04:57.239Z,41.93
2018-02-15T08:07:22.933Z,44.60
2018-02-15T08:09:48.621Z,43.47
2018-02-15T08:12:14.297Z,41.17
2018-02-15T08:14:39.977Z,43.43
2018-02-15T08:17:05.688Z,40.13
2018-02-15T08:19:31.394Z,44.63
2018-02-15T08:21:57.077Z,50.13
2018-02-15T08:24:22.773Z,37.17
2018-02-15T08:26:48.453Z,41.87
2018-02-15T08:29:14.116Z,39.10
2018-02-15T08:31:39.823Z,38.70
2018-02-15T08:34:05.502Z,45.60
2018-02-15T08:36:31.173Z,44.83
2018-02-15T08:38:56.858Z,44.30
2018-02-15T08:41:22.525Z,45.47
2018-02-15T08:43:48.235Z,41.03
2018-02-15T08:46:13.902Z,43.30
2018-02-15T08:48:39.580Z,44.40
2018-02-15T08:51:05.304Z,37.83
2018-02-15T08:53:30.973Z,36.30
2018-02-15T08:55:56.649Z,46.10
2018-02-15T08:58:22.376Z,44.70
2018-02-15T09:00:48.062Z,40.60
2018-02-15T09:03:13.734Z,32.90
2018-02-15T09:05:39.681Z,29.73
2018-02-15T09:08:05.354Z,35.40
2018-02-15T09:10:31.034Z,40.30
2018-02-15T09:12:56.725Z,45.90
2018-02-15T09:15:22.413Z,37.50
2018-02-15T09:17:48.087Z,32.40
2018-02-15T09:20:13.913Z,43.63
2018-02-15T09:22:39.701Z,38.70
2018-02-15T09:25:05.381Z,38.37
2018-02-15T09:27:31.060Z,42.20
2018-02-15T09:29:56.732Z,47.43
2018-02-15T09:32:22.424Z,50.27
2018-02-15T09:34:48.092Z,36.47
2018-02-15T09:37:13.771Z,35.17
2018-02-15T09:39:39.477Z,38.43
2018-02-15T09:42:05.136Z,44.23
2018-02-15T09:44:30.801Z,28.73
2018-02-15T09:46:56.472Z,33.03
2018-02-15T09:49:22.144Z,38.50
2018-02-15T09:51:47.845Z,34.70
2018-02-15T09:54:13.513Z,40.93
2018-02-15T09:56:39.200Z,37.13
2018-02-15T09:59:04.892Z,33.50
2018-02-15T10:01:30.553Z,36.10
2018-02-15T10:03:56.228Z,41.80
2018-02-15T10:06:21.920Z,37.33
2018-02-15T10:08:47.597Z,42.37
2018-02-15T10:11:13.264Z,40.63
2018-02-15T10:13:38.970Z,41.33
2018-02-15T10:16:04.651Z,28.33
2018-02-15T10:18:30.326Z,47.33
2018-02-15T10:20:56.024Z,38.80
2018-02-15T10:23:21.692Z,41.13
2018-02-15T10:25:47.362Z,28.97
2018-02-15T10:28:13.055Z,38.73
2018-02-15T10:30:38.756Z,32.33
2018-02-15T10:33:04.445Z,42.80
2018-02-15T10:35:30.140Z,46.27
2018-02-15T10:37:55.817Z,34.90
2018-02-15T10:40:21.509Z,39.83
2018-02-15T10:42:47.193Z,33.80
2018-02-15T10:45:12.873Z,40.30
2018-02-15T10:47:38.564Z,44.57
2018-02-15T10:50:04.233Z,39.07
2018-02-15T10:52:29.920Z,41.40
2018-02-15T10:54:55.605Z,36.40
2018-02-15T10:57:21.282Z,32.83
2018-02-15T10:59:46.958Z,44.70
2018-02-15T11:02:18.934Z,41.40
2018-02-15T11:04:51.573Z,45.35
2018-02-15T11:07:18.244Z,44.50
2018-02-15T11:09:44.011Z,42.08
2018-02-15T11:12:09.692Z,43.33
2018-02-15T11:14:35.972Z,35.83
2018-02-15T11:17:01.685Z,35.83
2018-02-15T11:19:27.385Z,32.40
2018-02-15T11:21:53.072Z,44.57
2018-02-15T11:24:18.775Z,42.60
2018-02-15T11:26:44.469Z,46.13
2018-02-15T11:29:10.153Z,41.90
2018-02-15T11:31:35.882Z,48.90
2018-02-15T11:34:01.593Z,41.20
2018-02-15T11:36:27.298Z,37.77
2018-02-15T11:38:53.497Z,32.97
2018-02-15T11:41:19.169Z,38.97
2018-02-15T11:43:44.860Z,39.10
2018-02-15T11:46:10.869Z,35.50
2018-02-15T11:48:36.574Z,42.03
2018-02-15T11:51:02.257Z,36.17
2018-02-15T11:53:27.945Z,33.33
2018-02-15T11:55:53.641Z,35.70
2018-02-15T11:58:19.345Z,45.53
2018-02-15T12:00:45.049Z,36.43
2018-02-15T12:03:10.730Z,47.53
2018-02-15T12:05:37.519Z,42.67
2018-02-15T12:08:03.291Z,29.08
2018-02-15T12:10:29.037Z,32.20
2018-02-15T12:12:54.726Z,38.27
2018-02-15T12:15:20.420Z,50.10
2018-02-15T12:17:46.112Z,37.97
2018-02-15T12:20:11.896Z,47.20
2018-02-15T12:22:37.587Z,43.10
2018-02-15T12:25:03.272Z,31.33
2018-02-15T12:27:28.972Z,40.97
2018-02-15T12:29:54.641Z,52.87
2018-02-15T12:32:20.509Z,37.50
2018-02-15T12:34:46.417Z,45.27
2018-02-15T12:37:12.098Z,36.23
2018-02-15T12:39:37.797Z,37.33
2018-02-15T12:42:03.705Z,43.00
2018-02-15T12:44:29.388Z,55.00
2018-02-15T12:46:55.609Z,40.47
2018-02-15T12:49:21.362Z,48.83
2018-02-15T12:51:47.048Z,47.73
2018-02-15T12:54:12.762Z,51.97
2018-02-15T12:56:38.526Z,42.03
2018-02-15T12:59:05.011Z,46.23
2018-02-15T13:01:34.155Z,40.55
2018-02-15T13:03:59.857Z,46.78
2018-02-15T13:06:25.549Z,36.23
2018-02-15T13:08:51.220Z,46.50
2018-02-15T13:11:18.203Z,45.33
2018-02-15T13:13:44.595Z,46.95
2018-02-15T13:16:16.352Z,54.55
2018-02-15T13:18:43.027Z,50.47
2018-02-15T13:21:08.773Z,40.85
2018-02-15T13:23:34.449Z,45.37
2018-02-15T13:26:00.129Z,45.33
2018-02-15T13:28:32.113Z,48.53
2018-02-15T13:30:57.788Z,49.60
2018-02-15T13:33:23.461Z,49.83
2018-02-15T13:35:49.163Z,47.23
2018-02-15T13:38:14.836Z,53.53
2018-02-15T13:40:40.524Z,49.00
2018-02-15T13:43:06.234Z,49.20
2018-02-15T13:45:31.935Z,41.27
2018-02-15T13:47:57.622Z,35.20
2018-02-15T13:50:23.299Z,41.30
2018-02-15T13:52:49.276Z,59.63
2018-02-15T13:55:14.973Z,57.97
2018-02-15T13:57:40.920Z,60.20
2018-02-15T14:00:06.601Z,40.70
2018-02-15T14:02:32.269Z,41.93
2018-02-15T14:04:57.976Z,57.30
2018-02-15T14:07:23.668Z,48.80
2018-02-15T14:09:49.353Z,46.50
2018-02-15T14:12:15.068Z,51.70
2018-02-15T14:14:40.745Z,47.37
2018-02-15T14:17:06.601Z,55.10
2018-02-15T14:19:32.297Z,55.40
2018-02-15T14:21:57.986Z,52.93
2018-02-15T14:24:23.704Z,62.63
2018-02-15T14:26:49.561Z,54.30
2018-02-15T14:29:15.264Z,50.97
2018-02-15T14:31:41.108Z,57.10
2018-02-15T14:34:06.966Z,49.50
2018-02-15T14:36:32.675Z,47.27
2018-02-15T14:38:58.418Z,53.30
2018-02-15T14:41:24.102Z,55.70
2018-02-15T14:43:49.784Z,48.87
2018-02-15T14:46:15.744Z,39.90
2018-02-15T14:48:41.432Z,62.80
2018-02-15T14:51:07.104Z,48.67
2018-02-15T14:53:32.772Z,45.07
2018-02-15T14:55:58.911Z,53.80
2018-02-15T14:58:24.577Z,51.95
2018-02-15T15:00:50.262Z,52.60
2018-02-15T15:03:15.955Z,53.40
2018-02-15T15:05:41.830Z,58.10
2018-02-15T15:08:07.513Z,46.77
2018-02-15T15:10:33.201Z,60.77
2018-02-15T15:12:58.909Z,45.93
2018-02-15T15:15:24.592Z,51.53
2018-02-15T15:17:50.465Z,47.07
2018-02-15T15:20:16.148Z,52.97
2018-02-15T15:22:43.492Z,52.08
2018-02-15T15:25:09.191Z,33.70
2018-02-15T15:27:34.890Z,109.40
2018-02-15T15:30:00.570Z,121.07
2018-02-15T15:32:26.596Z,56.13
2018-02-15T15:34:52.275Z,46.05
2018-02-15T15:37:17.962Z,46.53
2018-02-15T15:39:43.664Z,53.43
2018-02-15T15:42:09.354Z,57.40
2018-02-15T15:44:35.029Z,61.87
2018-02-15T15:47:00.995Z,59.50
2018-02-15T15:49:26.787Z,68.47
2018-02-15T15:51:52.496Z,57.10
2018-02-15T15:54:18.228Z,76.60
2018-02-15T15:56:43.906Z,50.70
2018-02-15T15:59:09.591Z,56.47
2018-02-15T16:01:35.286Z,58.43
2018-02-15T16:04:00.952Z,69.43
2018-02-15T16:06:26.658Z,55.60
2018-02-15T16:08:52.330Z,64.23
2018-02-15T16:11:18.000Z,62.23
2018-02-15T16:13:43.696Z,63.67
2018-02-15T16:16:09.464Z,64.23
2018-02-15T16:18:35.135Z,60.10
2018-02-15T16:21:01.020Z,81.27
2018-02-15T16:23:26.684Z,69.70
2018-02-15T16:25:52.374Z,66.47
2018-02-15T16:28:18.058Z,53.40
2018-02-15T16:30:43.727Z,49.67
2018-02-15T16:33:09.414Z,43.40
2018-02-15T16:35:35.112Z,69.00
2018-02-15T16:38:01.187Z,63.93
2018-02-15T16:40:26.870Z,68.12
2018-02-15T16:42:52.562Z,71.83
2018-02-15T16:45:18.287Z,73.87
2018-02-15T16:47:44.966Z,72.77
2018-02-15T16:50:10.645Z,88.65
2018-02-15T16:52:37.328Z,77.90
2018-02-15T16:55:03.051Z,78.40
2018-02-15T16:57:28.746Z,58.63
2018-02-15T16:59:54.480Z,76.03
2018-02-15T17:02:20.159Z,86.50
2018-02-15T17:04:45.845Z,59.53
2018-02-15T17:07:11.532Z,72.03
2018-02-15T17:09:37.233Z,83.10
2018-02-15T17:12:03.532Z,69.93
2018-02-15T17:14:29.262Z,42.10
2018-02-15T17:16:55.267Z,65.50
2018-02-15T17:19:21.098Z,83.57
2018-02-15T17:21:47.402Z,86.40
2018-02-15T17:24:13.189Z,75.85
2018-02-15T17:26:38.921Z,79.77
2018-02-15T17:29:04.641Z,90.70
2018-02-15T17:31:30.334Z,70.20
2018-02-15T17:33:56.064Z,69.43
2018-02-15T17:36:21.766Z,78.73
2018-02-15T17:38:47.438Z,72.30
2018-02-15T17:41:13.160Z,87.67
2018-02-15T17:43:38.896Z,68.97
2018-02-15T17:46:04.574Z,58.73
2018-02-15T17:48:30.262Z,67.73
2018-02-15T17:50:56.405Z,67.77
2018-02-15T17:53:22.128Z,77.40
2018-02-15T17:55:47.817Z,80.83
2018-02-15T17:58:13.546Z,81.03
2018-02-15T18:00:39.555Z,85.23
2018-02-15T18:03:07.841Z,80.80
2018-02-15T18:05:33.879Z,77.82
2018-02-15T18:07:59.577Z,73.20
2018-02-15T18:10:25.273Z,50.93
2018-02-15T18:12:51.004Z,70.13
2018-02-15T18:15:17.042Z,78.93
2018-02-15T18:17:42.735Z,68.75
2018-02-15T18:20:08.465Z,77.07
2018-02-15T18:22:34.197Z,72.97
2018-02-15T18:25:00.116Z,69.40
2018-02-15T18:27:25.857Z,74.50
2018-02-15T18:29:51.541Z,59.00
2018-02-15T18:32:17.321Z,63.60
2018-02-15T18:34:43.013Z,65.50
2018-02-15T18:37:08.713Z,39.07
2018-02-15T18:39:34.397Z,68.53
2018-02-15T18:42:00.143Z,73.70
2018-02-15T18:44:25.831Z,58.77
2018-02-15T18:46:51.535Z,48.47
2018-02-15T18:49:18.209Z,64.17
2018-02-15T18:51:43.884Z,77.28
2018-02-15T18:54:10.228Z,70.30
2018-02-15T18:56:35.910Z,63.10
2018-02-15T18:59:01.626Z,73.40
2018-02-15T19:01:27.595Z,58.90
2018-02-15T19:03:53.538Z,65.37
2018-02-15T19:06:19.247Z,72.50
2018-02-15T19:08:45.032Z,42.90
2018-02-15T19:11:10.720Z,69.60
2018-02-15T19:13:36.405Z,75.10
2018-02-15T19:16:02.305Z,82.90
2018-02-15T19:18:28.016Z,79.70
2018-02-15T19:20:53.704Z,80.17
2018-02-15T19:23:19.421Z,77.13
2018-02-15T19:25:45.097Z,88.43
2018-02-15T19:28:10.804Z,98.93
2018-02-15T19:30:36.802Z,78.50
2018-02-15T19:33:02.498Z,59.70
2018-02-15T19:35:28.574Z,80.10
2018-02-15T19:37:54.772Z,97.60
2018-02-15T19:40:20.713Z,71.60
2018-02-15T19:42:47.018Z,83.73
2018-02-15T19:45:13.248Z,66.62
2018-02-15T19:47:40.615Z,60.55
2018-02-15T19:50:06.731Z,83.65
2018-02-15T19:52:32.898Z,76.20
2018-02-15T19:54:59.008Z,80.57
2018-02-15T19:57:25.196Z,70.47
2018-02-15T19:59:51.268Z,72.03
2018-02-15T20:02:17.892Z,78.50
2018-02-15T20:04:44.065Z,82.53
2018-02-15T20:07:09.740Z,75.60
2018-02-15T20:09:36.104Z,82.53
2018-02-15T20:12:02.055Z,74.60
2018-02-15T20:14:27.737Z,75.33
2018-02-15T20:16:53.403Z,59.77
2018-02-15T20:19:19.094Z,71.07
2018-02-15T20:21:44.777Z,57.37
2018-02-15T20:24:10.455Z,69.27
2018-02-15T20:26:42.410Z,132.17
2018-02-15T20:29:08.077Z,125.93
2018-02-15T20:31:34.954Z,89.37
2018-02-15T20:34:00.657Z,59.50
2018-02-15T20:36:26.320Z,116.83
2018-02-15T20:38:58.114Z,132.60
2018-02-15T20:41:23.841Z,86.80
2018-02-15T20:43:49.559Z,78.07
2018-02-15T20:46:15.272Z,143.40
2018-02-15T20:48:41.195Z,163.53
2018-02-15T20:51:13.161Z,112.77
2018-02-15T20:53:45.251Z,55.67
2018-02-15T20:56:11.086Z,145.93
2018-02-15T20:58:36.830Z,137.47
2018-02-15T21:01:02.587Z,151.83
2018-02-15T21:03:28.273Z,62.87
2018-02-15T21:05:53.956Z,86.83
2018-02-15T21:08:19.653Z,93.87
2018-02-15T21:10:45.356Z,84.90
2018-02-15T21:13:11.028Z,121.07
2018-02-15T21:15:37.262Z,105.40
2018-02-15T21:18:03.002Z,131.07
2018-02-15T21:20:28.677Z,155.53
2018-02-15T21:22:54.373Z,82.53
2018-02-15T21:25:20.057Z,73.67
2018-02-15T21:27:45.732Z,68.43
2018-02-15T21:30:11.416Z,73.53
2018-02-15T21:32:37.089Z,117.60
2018-02-15T21:37:38.261Z,135.05
2018-02-15T21:40:05.309Z,80.85
2018-02-15T21:42:31.730Z,80.75
2018-02-15T21:44:57.869Z,87.05
2018-02-15T21:47:23.685Z,132.23
2018-02-15T21:49:49.986Z,65.43
2018-02-15T21:52:16.040Z,65.68
2018-02-15T21:54:41.835Z,107.05
2018-02-15T21:57:07.532Z,77.40
2018-02-15T21:59:34.136Z,65.20
2018-02-15T22:01:59.813Z,97.10
2018-02-15T22:04:26.462Z,140.50
2018-02-15T22:06:52.138Z,109.18
2018-02-15T22:09:19.226Z,67.43
2018-02-15T22:11:45.761Z,92.68
2018-02-15T22:14:11.609Z,132.27
2018-02-15T22:16:37.602Z,69.63
2018-02-15T22:19:03.521Z,68.40
2018-02-15T22:21:29.203Z,127.27
2018-02-15T22:23:56.183Z,109.50
2018-02-15T22:26:23.229Z,55.40
2018-02-15T22:28:48.945Z,57.20
2018-02-15T22:31:14.893Z,108.30
2018-02-15T22:33:41.388Z,110.55
2018-02-15T22:36:07.594Z,119.43
2018-02-15T22:38:33.357Z,102.18
2018-02-15T22:40:59.665Z,108.20
2018-02-15T22:43:25.622Z,103.60
2018-02-15T22:45:51.896Z,120.13
2018-02-15T22:48:18.349Z,108.53
2018-02-15T22:50:44.236Z,71.78
2018-02-15T22:53:10.411Z,49.53
2018-02-15T22:55:36.261Z,89.57
2018-02-15T22:58:02.667Z,69.13
2018-02-15T23:00:29.124Z,64.40
2018-02-15T23:02:54.834Z,72.82
2018-02-15T23:05:20.500Z,50.43
2018-02-15T23:07:47.569Z,88.53
2018-02-15T23:10:14.102Z,62.35
2018-02-15T23:12:39.960Z,63.92
2018-02-15T23:15:06.455Z,47.63
2018-02-15T23:17:32.370Z,66.75
2018-02-15T23:19:58.056Z,57.90
2018-02-15T23:22:23.809Z,55.93
2018-02-15T23:24:50.342Z,37.07
2018-02-15T23:27:16.672Z,74.55
2018-02-15T23:29:42.421Z,90.22
2018-02-15T23:32:08.092Z,66.27
2018-02-15T23:34:34.234Z,27.97
2018-02-15T23:36:59.921Z,81.35
2018-02-15T23:39:26.378Z,80.70
2018-02-15T23:41:52.057Z,79.57
2018-02-15T23:44:18.276Z,82.60
2018-02-15T23:46:43.945Z,69.80
2018-02-15T23:49:09.625Z,62.30
2018-02-15T23:51:36.705Z,62.33
2018-02-15T23:54:02.764Z,60.25
2018-02-15T23:56:28.450Z,62.70
2018-02-15T23:58:55.556Z,65.17
